Latest Weather Observations for Jervois

IDD60801

Issued at 5:35 pm CST Friday 18 April 2014 (issued every 30 minutes, with the page automatically refreshed every 10 minutes)

About weather observations | Map of weather stations | Latest weather observations for NT | Other Formats
Station Details ID: 015602 Name: JERVOIS Lat: -22.95 Lon: 136.14 Height: 328.0 m
Data from the previous 72 hours. | See also: Recent months at Jervois
Date/Time
CST
Temp
°C
App
Temp
°C
Dew
Point
Rel
Hum
%
Delta-T
°C
Wind Press
QNH
hPa
Press
MSL
hPa
Rain
since 9 am
mm
Dir
 
Spd
km/h
Gust
km/h
Spd
kts
Gust
kts
18/05:30pm 28.3 22.0 -5.7 10 14.7 SE 19 26 10 14 1018.1 - 0.0
18/05:00pm 29.0 22.5 -6.3 9 15.2 SE 20 30 11 16 1018.0 - 0.0
18/04:30pm 29.1 22.3 -4.8 10 15.0 SE 22 33 12 18 1017.8 - 0.0
18/04:00pm 29.6 22.4 -5.5 10 15.4 SE 24 37 13 20 1018.0 - 0.0
18/03:30pm 29.5 23.0 -5.8 9 15.4 SE 20 35 11 19 1018.0 - 0.0
18/03:00pm 29.3 23.0 -5.9 9 15.3 SSE 19 28 10 15 1018.0 1016.6 0.0
18/02:30pm 29.7 23.4 -4.0 11 15.2 SE 20 35 11 19 1018.0 - 0.0
18/02:00pm 29.1 22.7 -4.8 10 15.0 SSE 20 35 11 19 1018.4 - 0.0
18/01:30pm 28.9 22.8 -3.8 11 14.7 ESE 19 32 10 17 1018.7 - 0.0
18/01:00pm 28.4 22.1 -3.7 12 14.4 SE 20 32 11 17 1019.2 - 0.0
18/12:30pm 28.1 21.4 -4.1 12 14.3 ESE 22 33 12 18 1019.6 - 0.0
18/12:00pm 27.9 21.2 -4.2 12 14.2 E 22 32 12 17 1019.9 1018.7 0.0
18/11:30am 27.4 20.4 -3.6 13 13.8 SE 24 35 13 19 1020.3 - 0.0
18/11:00am 26.7 19.9 -1.6 15 13.0 ESE 24 32 13 17 1020.6 - 0.0
18/10:30am 26.3 20.0 -1.3 16 12.7 SE 22 33 12 18 1020.7 - 0.0
18/10:00am 24.9 18.9 -1.2 18 11.9 ESE 20 30 11 16 1020.9 - 0.0
18/09:30am 23.9 18.0 -0.6 19 11.2 ESE 20 32 11 17 1021.3 - 0.0
18/09:00am 22.5 16.9 0.0 22 10.3 SE 19 28 10 15 1021.4 1020.0 0.0
18/08:30am 20.7 15.9 0.5 26 9.2 SE 15 24 8 13 1021.3 - 0.0
18/08:00am 18.6 14.5 2.2 33 7.6 SSE 13 17 7 9 1021.0 - 0.0
18/07:30am 16.6 13.3 2.4 38 6.5 S 9 13 5 7 1020.8 - 0.0
18/07:00am 14.6 11.3 2.4 43 5.5 S 9 11 5 6 1020.4 - 0.0
18/06:30am 14.2 10.9 2.4 45 5.3 S 9 11 5 6 1020.2 - 0.0
18/06:00am 14.5 11.6 2.8 45 5.3 SSE 7 11 4 6 1020.1 1018.8 0.0
18/05:30am 14.8 11.9 2.7 44 5.5 S 7 11 4 6 1019.9 - 0.0
18/05:00am 15.0 12.1 2.4 42 5.7 S 7 11 4 6 1019.8 - 0.0
18/04:30am 15.1 12.2 2.5 42 5.7 S 7 9 4 5 1019.5 - 0.0
18/04:00am 15.4 12.5 2.4 41 5.9 S 7 11 4 6 1019.5 - 0.0
18/03:30am 15.8 12.4 1.8 39 6.3 S 9 11 5 6 1019.5 - 0.0
18/03:00am 16.1 12.7 1.6 37 6.5 S 9 11 5 6 1019.6 1018.2 0.0
18/02:30am 16.8 13.4 1.8 36 6.8 SSE 9 11 5 6 1019.8 - 0.0
18/02:00am 17.5 13.6 1.0 33 7.4 SSE 11 15 6 8 1019.9 - 0.0
18/01:30am 17.5 14.0 1.0 33 7.4 SSE 9 13 5 7 1020.1 - 0.0
18/01:00am 18.0 14.0 0.8 31 7.7 SSE 11 13 6 7 1020.3 - 0.0
18/12:30am 18.6 15.0 0.9 30 8.0 SSE 9 13 5 7 1020.5 - 0.0
18/12:00am 19.5 15.0 0.0 27 8.7 SSE 13 17 7 9 1020.5 1019.2 0.0
 
Date/Time
CST
Temp
°C
App
Temp
°C
Dew
Point
Rel
Hum
%
Delta-T
°C
Wind Press
QNH
hPa
Press
MSL
hPa
Rain
since 9 am
mm
Dir
 
Spd
km/h
Gust
km/h
Spd
kts
Gust
kts
17/11:30pm 19.6 15.6 0.2 27 8.7 SSE 11 15 6 8 1020.5 - 0.0
17/11:00pm 19.8 16.2 0.6 27 8.7 SSE 9 13 5 7 1020.7 - 0.0
17/10:30pm 20.6 17.0 0.7 26 9.1 S 9 13 5 7 1020.7 - 0.0
17/10:00pm 21.2 17.5 0.0 24 9.6 SSE 9 15 5 8 1020.6 - 0.0
17/09:30pm 21.5 17.8 0.2 24 9.7 S 9 13 5 7 1020.5 - 0.0
17/09:00pm 22.4 18.2 -1.0 21 10.5 S 11 15 6 8 1020.3 1019.0 0.0
17/08:30pm 22.9 18.6 -2.0 19 11.0 S 11 15 6 8 1020.0 - 0.0
17/08:00pm 23.4 19.6 -0.4 20 10.9 S 9 13 5 7 1019.8 - 0.0
17/07:30pm 24.5 20.3 -0.8 19 11.6 S 11 13 6 7 1019.3 - 0.0
17/07:00pm 25.3 21.1 -1.1 17 12.1 S 11 15 6 8 1018.8 - 0.0
17/06:30pm 26.6 21.7 -3.3 14 13.3 S 13 20 7 11 1018.4 - 0.0
17/06:00pm 27.6 22.0 -3.0 13 13.8 SSE 17 24 9 13 1018.0 1016.6 0.0
17/05:30pm 28.5 23.3 -2.9 12 14.3 SE 15 22 8 12 1017.5 - 0.0
17/05:00pm 28.7 22.8 -2.3 13 14.3 ESE 19 24 10 13 1017.2 - 0.0
17/04:30pm 29.0 23.1 -2.5 12 14.5 SSE 19 28 10 15 1017.1 - 0.0
17/04:00pm 29.1 23.2 -2.2 13 14.5 E 19 28 10 15 1017.1 - 0.0
17/03:30pm 29.0 23.9 -2.0 13 14.4 SE 15 24 8 13 1017.3 - 0.0
17/03:00pm 29.2 23.7 -2.4 12 14.6 SSE 17 28 9 15 1017.4 1016.2 0.0
17/02:30pm 29.0 23.1 -2.0 13 14.4 E 19 24 10 13 1017.7 - 0.0
17/02:00pm 28.5 23.1 -1.0 14 13.9 SSE 17 26 9 14 1018.2 - 0.0
17/01:30pm 29.3 24.4 -0.8 14 14.3 SE 15 30 8 16 1018.5 - 0.0
17/01:00pm 28.0 22.8 -0.1 16 13.4 SE 17 28 9 15 1019.1 - 0.0
17/12:30pm 27.2 22.1 0.8 18 12.7 ESE 17 28 9 15 1019.6 - 0.0
17/12:00pm 27.6 22.2 1.3 18 12.8 E 19 24 10 13 1020.1 1018.8 0.0
17/11:30am 27.1 22.1 1.4 19 12.5 SE 17 26 9 14 1020.5 - 0.0
17/11:00am 25.7 19.6 0.6 19 11.9 ESE 22 33 12 18 1021.0 - 0.0
17/10:30am 25.1 19.8 2.0 22 11.2 ESE 19 28 10 15 1021.4 - 0.0
17/10:00am 23.8 18.5 2.9 25 10.2 ESE 20 30 11 16 1021.7 - 0.0
17/09:30am 22.4 16.8 3.3 28 9.3 ESE 22 35 12 19 1021.8 - 0.0
17/09:00am 21.5 16.9 3.9 31 8.6 ESE 17 26 9 14 1021.7 1020.3 0.0
17/08:30am 19.9 16.6 4.6 36 7.5 SE 11 17 6 9 1021.5 - 0.0
17/08:00am 18.3 15.5 5.0 41 6.5 SE 9 15 5 8 1021.3 - 0.0
17/07:30am 16.8 14.6 5.3 46 5.6 SSE 6 11 3 6 1021.0 - 0.0
17/07:00am 15.4 13.2 5.5 51 4.8 SSE 6 9 3 5 1020.6 - 0.0
17/06:30am 15.0 12.1 4.9 51 4.8 S 9 13 5 7 1020.3 - 0.0
17/06:00am 15.2 12.3 4.7 49 5.0 S 9 13 5 7 1020.0 1018.7 0.0
17/05:30am 15.6 12.7 4.7 48 5.2 S 9 13 5 7 1019.8 - 0.0
17/05:00am 15.9 13.0 4.6 47 5.4 S 9 15 5 8 1019.6 - 0.0
17/04:30am 16.1 13.1 4.3 45 5.6 S 9 13 5 7 1019.3 - 0.0
17/04:00am 16.5 13.6 4.6 45 5.7 SSE 9 11 5 6 1019.2 - 0.0
17/03:30am 17.0 14.1 4.5 43 6.0 S 9 15 5 8 1019.1 - 0.0
17/03:00am 17.4 14.0 4.0 41 6.4 SSE 11 17 6 9 1019.1 1017.7 0.0
17/02:30am 17.6 14.2 4.0 40 6.5 SSE 11 15 6 8 1019.1 - 0.0
17/02:00am 17.5 14.5 4.1 41 6.4 S 9 13 5 7 1019.2 - 0.0
17/01:30am 17.7 14.6 3.8 39 6.6 SSE 9 13 5 7 1019.3 - 0.0
17/01:00am 18.5 15.4 3.6 37 7.1 SSE 9 13 5 7 1019.4 - 0.0
17/12:30am 19.1 15.5 3.0 34 7.6 SSE 11 17 6 9 1019.4 - 0.0
17/12:00am 19.6 16.0 2.9 33 7.9 SSE 11 17 6 9 1019.3 1017.9 0.0
 
Date/Time
CST
Temp
°C
App
Temp
°C
Dew
Point
Rel
Hum
%
Delta-T
°C
Wind Press
QNH
hPa
Press
MSL
hPa
Rain
since 9 am
mm
Dir
 
Spd
km/h
Gust
km/h
Spd
kts
Gust
kts
16/11:30pm 19.8 16.2 3.0 33 8.0 S 11 13 6 7 1019.4 - 0.0
16/11:00pm 20.4 16.7 2.4 30 8.5 S 11 15 6 8 1019.5 - 0.0
16/10:30pm 20.9 17.2 2.6 30 8.7 S 11 19 6 10 1019.6 - 0.0
16/10:00pm 21.7 17.6 2.4 28 9.2 SSE 13 20 7 11 1019.5 - 0.0
16/09:30pm 22.1 18.0 2.4 27 9.4 SSE 13 17 7 9 1019.4 - 0.0
16/09:00pm 22.7 18.6 2.2 26 9.8 SSE 13 19 7 10 1019.2 1017.8 0.0
16/08:30pm 22.9 18.8 2.3 26 9.9 SSE 13 17 7 9 1018.9 - 0.0
16/08:00pm 23.5 19.3 1.7 24 10.4 S 13 17 7 9 1018.4 - 0.0
16/07:30pm 24.2 20.1 2.3 24 10.6 S 13 19 7 10 1018.1 - 0.0
16/07:00pm 24.8 20.7 2.1 22 11.0 SSE 13 20 7 11 1017.8 - 0.0
16/06:30pm 25.5 20.9 1.7 21 11.5 SSE 15 22 8 12 1017.6 - 0.0
16/06:00pm 26.4 21.5 2.2 21 11.9 S 17 28 9 15 1017.3 1016.0 0.0
16/05:30pm 27.1 21.6 1.8 19 12.4 SSE 20 33 11 18 1016.9 - 0.0
16/05:00pm 27.6 22.1 2.1 19 12.6 S 20 32 11 17 1016.7 - 0.0
16/04:30pm 28.1 22.3 2.1 18 12.9 SSE 22 35 12 19 1016.5 - 0.0
16/04:00pm 28.4 23.0 2.4 18 13.0 SSE 20 37 11 20 1016.4 - 0.0
16/03:30pm 28.5 22.7 2.2 18 13.1 S 22 33 12 18 1016.5 - 0.0
16/03:00pm 28.6 23.3 2.8 19 13.0 SSE 20 39 11 21 1016.7 1015.3 0.0
16/02:30pm 27.9 23.6 3.1 20 12.5 SSE 15 28 8 15 1016.9 - 0.0
16/02:00pm 28.3 23.3 3.6 20 12.6 S 19 28 10 15 1017.2 - 0.0
16/01:30pm 27.8 23.2 3.9 21 12.2 SSE 17 28 9 15 1017.7 - 0.0
16/01:00pm 27.8 22.7 4.3 22 12.1 SSE 20 33 11 18 1018.0 - 0.0
16/12:30pm 27.4 22.5 4.1 22 11.9 S 19 30 10 16 1018.5 - 0.0
16/12:00pm 26.7 22.4 5.1 25 11.2 SE 17 28 9 15 1019.0 1017.6 0.0
16/11:30am 26.0 21.0 4.7 25 10.9 SE 20 32 11 17 1019.5 - 0.0
16/11:00am 25.1 19.3 4.6 26 10.4 SE 24 32 13 17 1020.1 - 0.0
16/10:30am 25.6 19.8 4.6 26 10.7 SE 24 35 13 19 1020.5 - 0.0
16/10:00am 24.1 18.0 5.0 29 9.7 SE 26 35 14 19 1020.7 - 0.0
16/09:30am 23.4 18.7 5.9 32 9.0 ESE 20 32 11 17 1020.7 - 0.0
16/09:00am 22.3 17.7 5.8 34 8.4 SE 19 26 10 14 1020.6 1019.3 0.0
16/08:30am 20.9 16.8 6.2 38 7.5 SE 17 26 9 14 1020.4 - 0.0
16/08:00am 19.1 15.0 6.2 43 6.5 SSE 17 28 9 15 1020.2 - 0.0
16/07:30am 17.6 15.1 6.7 48 5.5 S 9 13 5 7 1020.1 - 0.0
16/07:00am 15.5 13.5 6.9 56 4.3 S 7 9 4 5 1019.7 - 0.0
16/06:30am 15.4 13.4 7.0 57 4.2 S 7 9 4 5 1019.4 - 0.0
16/06:00am 16.1 14.1 6.9 54 4.6 S 7 9 4 5 1019.2 1017.8 0.0
16/05:30am 16.5 14.5 6.9 53 4.8 S 7 9 4 5 1018.9 - 0.0
16/05:00am 16.9 14.9 7.2 52 4.9 S 7 11 4 6 1018.7 - 0.0
16/04:30am 17.6 15.2 6.9 49 5.4 S 9 15 5 8 1018.5 - 0.0
16/04:00am 18.1 15.3 7.1 48 5.6 SSE 11 17 6 9 1018.4 - 0.0
16/03:30am 18.5 15.0 7.2 47 5.8 SSE 15 20 8 11 1018.3 - 0.0
16/03:00am 18.9 15.4 7.2 46 6.0 SSE 15 20 8 11 1018.3 1016.9 0.0
16/02:30am 19.2 16.1 7.4 46 6.1 S 13 19 7 10 1018.3 - 0.0
16/02:00am 19.1 16.4 7.2 46 6.1 S 11 19 6 10 1018.2 - 0.0
16/01:30am 19.8 17.0 6.9 43 6.6 SSE 11 17 6 9 1018.5 - 0.0
16/01:00am 20.0 16.8 7.0 43 6.7 SSE 13 17 7 9 1018.5 - 0.0
16/12:30am 20.6 17.3 6.5 40 7.2 SSE 13 19 7 10 1018.7 - 0.0
16/12:00am 21.2 17.8 6.1 37 7.7 SSE 13 20 7 11 1018.6 1017.2 0.0
 
Date/Time
CST
Temp
°C
App
Temp
°C
Dew
Point
Rel
Hum
%
Delta-T
°C
Wind Press
QNH
hPa
Press
MSL
hPa
Rain
since 9 am
mm
Dir
 
Spd
km/h
Gust
km/h
Spd
kts
Gust
kts
15/11:30pm 21.4 18.0 6.1 37 7.8 S 13 19 7 10 1018.7 - 0.0
15/11:00pm 21.8 18.3 5.6 35 8.2 S 13 19 7 10 1018.8 - 0.0
15/10:30pm 22.0 18.9 5.7 34 8.3 S 11 17 6 9 1018.6 - 0.0
15/10:00pm 22.7 19.1 5.1 32 8.9 S 13 19 7 10 1018.5 - 0.0
15/09:30pm 23.4 19.4 4.8 30 9.4 S 15 24 8 13 1018.4 - 0.0
15/09:00pm 23.7 19.6 4.4 28 9.7 S 15 20 8 11 1018.1 1016.7 0.0
15/08:30pm 24.3 20.5 3.9 26 10.2 S 13 20 7 11 1017.8 - 0.0
15/08:00pm 24.9 20.7 4.0 26 10.5 S 15 19 8 10 1017.4 - 0.0
15/07:30pm 25.5 21.0 4.1 25 10.8 S 17 28 9 15 1017.0 - 0.0
15/07:00pm 25.9 21.5 4.6 25 10.9 S 17 26 9 14 1016.7 - 0.0
15/06:30pm 26.4 22.1 5.2 25 11.0 SSE 17 28 9 15 1016.3 - 0.0
15/06:00pm 27.4 22.4 4.8 23 11.7 SSE 20 30 11 16 1016.1 1014.7 0.0

Other Formats:

Comma delimited format used in spreadsheet applications
http://www.bom.gov.au/fwo/IDD60801/IDD60801.94327.axf

JavaScript Object Notation format (JSON) in row-major order
http://www.bom.gov.au/fwo/IDD60801/IDD60801.94327.json